Medway, MA

5:40 PM EDT on May 06, 2015 (GMT -0400)
Live from 2 Dean Street | | Change Station
CLOSE
Current Station
Personal Weather Station
Location: Medway, MA
Elevation: 270 ft
Nearby Weather Stations

Elev 270 ft 42.15 °N, 71.41 °W | Updated 23 seconds ago

Clear
Clear
71.1 °F
Feels Like 76 °F
N
4.0
Wind Variable Wind from NW
Gusts 4.0 mph

Today
High -- | Low -- °F
--% Chance of Precip.
Yesterday
High -- | Low -- °F
Precip. -- in
5:35 AM 7:50 PM
Waning Gibbous, 92% visible
Pressure 30.18 in
Visibility 10.0 miles
Clouds Clear
Heat Index 76 °F
Dew Point 39 °F
Humidity 31%
Rainfall 0.00 in
Snow Depth Not available.
UV 3 out of 12
Pollen 10.70 out of 12
Air Quality Not available.
Flu Activity Widespread
METAR KOWD 062053Z 19010KT 10SM CLR 23/M01 A3018 RMK AO2 SLP219 T02331006 56021

More Conditions Fewer Conditions

Pressure 30.18 in
Visibility 10.0 miles
Clouds Clear
Heat Index 76 °F
Dew Point 39 °F
Humidity 31%
Rainfall 0.00 in
Snow Depth Not available.
UV 3 out of 12
Pollen 10.70 out of 12
Air Quality Not available.
Flu Activity Widespread
METAR KOWD 062053Z 19010KT 10SM CLR 23/M01 A3018 RMK AO2 SLP219 T02331006 56021

More Conditions Fewer Conditions

10-Day Weather Forecast

Almanac

Astronomy

May. 06, 2015 Rise Set
Actual Time
Civil Twilight
Nautical Twilight
Astronomical Twilight
Moon
Length of Visible Light
Length of Day
Tomorrow will be .
, % of the Moon is Illuminated

Today's Extremes

State Highs State Lows

Community

WunderPhotos

Upload Photos

1,819,022 photos uploaded!

WunderBlogs® & News

Nearby

Air Quality

  Air Quality AQ Index Pollutant
Not available.

Snow Depth

Station Depth Elevation

Earthquake Activity

City Distance Mag. Time & Date
Minimum magnitude displayed is 2.5.

Coastal Water Temperatures

Place Temperature

Stations

Nearby Weather Stations

Station Location Temp. Windchill Dew Point Humidity Wind Precip. Elev Updated Type